Antelope, CA

4:35 AM PDT on September 23, 2014 (GMT -0700)
Firestone, Antelope, CA | Change Station
CLOSE
Current Station
Personal Weather Station
Location: Antelope, CA
Elevation: 155 ft
Nearby Weather Stations

Elev 155 ft 38.71 °N, 121.34 °W | Updated 60 seconds ago

Clear
Clear
62.4 °F
Feels Like 62.4 °F
N
2.0
Wind Variable Wind from ESE
Gusts 4.0 mph

Today
High -- | Low -- °F
--% Chance of Precip.
Yesterday
High -- | Low -- °F
Precip. -- in
6:54 AM 7:00 PM
Waning Crescent, 1% visible
Pressure 29.94 in
Visibility 10.0 miles
Clouds Clear
Dew Point 55 °F
Humidity 76%
Rainfall 0.00 in
Snow Depth 0 in , 1 in , 1 in
UV 0 out of 12
Pollen 5.30 out of 12
Ozone Good
PM2.5 Unhealthy
Flu Activity Not available.
METAR KMHR 231048Z 14005KT 10SM SKC 15/12 A2994

More Conditions Fewer Conditions

Pressure 29.94 in
Visibility 10.0 miles
Clouds Clear
Dew Point 55 °F
Humidity 76%
Rainfall 0.00 in
Snow Depth 0 in , 1 in , 1 in
UV 0 out of 12
Pollen 5.30 out of 12
Ozone Good
PM2.5 Unhealthy
Flu Activity Not available.
METAR KMHR 231048Z 14005KT 10SM SKC 15/12 A2994

More Conditions Fewer Conditions

10-Day Weather Forecast

Almanac

Astronomy

Sep. 23, 2014 Rise Set
Actual Time 6:54 AM PDT 7:00 PM PDT
Civil Twilight 6:27 AM PDT 7:27 PM PDT
Nautical Twilight 5:56 AM PDT 7:58 PM PDT
Astronomical Twilight 5:25 AM PDT 8:29 PM PDT
Moon 6:23 AM PDT 6:42 PM PDT
Length of Visible Light 12h 59m
Length of Day
12h 06m
Tomorrow will be 2m 30s shorter.
Waning Crescent, 1% of the Moon is Illuminated
Today
Waning Crescent
Sep 24
New
Oct 1
First Quarter
Oct 8
Full
Oct 15
Last Quarter

Today's Extremes

State Highs State Lows

Community

WunderPhotos

Upload Photos

1,755,644 photos uploaded!

Nearby

Air Quality

  Air Quality AQ Index Pollutant
Yesterday Very Unhealthy
PM2.5
Yesterday Good
OZONE
Current Unhealthy
PM2.5
Current Good
OZONE
Tuesday Moderate
OZONE
Wednesday Good
OZONE
Thursday Good
OZONE
Friday Good
OZONE
Saturday Good
OZONE

Snow Depth

Station Depth Elevation
Fallen Leaf 0 in 6300 ft
Burnside Lake 1 in 8139 ft
Summit Meadow 1 in 9122 ft
Echo Peak 1 in 7800 ft
Independence Camp 0 in 7000 ft

Earthquake Activity

City Distance Mag. Time & Date
Yountville, California 60 miles 2.6 1:17 PM PDT
2014-09-21
Minimum magnitude displayed is 2.5.

Coastal Water Temperatures

Place Temperature
No Stations Reporting

Nearby Weather Stations